Time;durP1;ratioP1;P1;durP2;ratioP2;P2;SDS_P1;SDS_P2;PMS_P1;PMS_P2;Temp;Humidity;BMP_temperature;BMP_pressure;BME280_temperature;BME280_humidity;BME280_pressure;Samples;Min_cycle;Max_cycle;Signal;HPM_P1;HPM_P2
2022/11/24 00:01:51;;;;;;;32.60;20.55;;;7.00;99.90;;;;;;5073861;28;20384;-80
2022/11/24 00:04:16;;;;;;;26.80;19.05;;;7.10;99.90;;;;;;5075497;28;20104;-81
2022/11/24 00:06:42;;;;;;;30.23;20.85;;;7.10;99.90;;;;;;5075473;28;20024;-80
2022/11/24 00:09:10;;;;;;;28.25;19.13;;;7.50;99.90;;;;;;5074638;28;20017;-80
2022/11/24 00:11:36;;;;;;;29.30;20.02;;;7.10;99.90;;;;;;5076011;28;20043;-80
2022/11/24 00:14:03;;;;;;;32.65;21.40;;;7.10;99.90;;;;;;5075385;28;20365;-80
2022/11/24 00:16:34;;;;;;;32.95;19.75;;;7.40;99.90;;;;;;5074421;28;20079;-80
2022/11/24 00:19:02;;;;;;;34.25;19.55;;;7.10;99.90;;;;;;5057916;28;20061;-80
2022/11/24 00:21:29;;;;;;;30.00;19.00;;;7.20;99.90;;;;;;5054958;28;20431;-80
2022/11/24 00:23:56;;;;;;;29.80;18.20;;;7.10;99.90;;;;;;5054809;28;20029;-80
2022/11/24 00:26:28;;;;;;;26.42;18.23;;;7.60;99.90;;;;;;5054826;28;20442;-80
2022/11/24 00:28:55;;;;;;;28.35;18.25;;;7.20;99.90;;;;;;5054878;28;20059;-80
2022/11/24 00:31:27;;;;;;;28.90;18.75;;;7.20;99.90;;;;;;5055045;28;20021;-80
2022/11/24 00:33:58;;;;;;;27.27;19.10;;;7.70;99.90;;;;;;5070444;28;20412;-80
2022/11/24 00:36:26;;;;;;;31.10;19.05;;;7.20;99.90;;;;;;5073961;28;20067;-80
2022/11/24 00:38:57;;;;;;;33.05;20.08;;;7.20;99.90;;;;;;5075151;28;20028;-80
2022/11/24 00:41:24;;;;;;;32.22;20.70;;;7.20;99.90;;;;;;5074595;28;20153;-81
2022/11/24 00:43:50;;;;;;;31.42;19.80;;;7.20;99.90;;;;;;5074693;28;20024;-80
2022/11/24 00:46:16;;;;;;;31.05;20.30;;;7.20;99.90;;;;;;5074344;28;20044;-80
2022/11/24 00:48:42;;;;;;;27.05;17.33;;;7.70;99.90;;;;;;5074482;28;20079;-80
2022/11/24 00:51:10;;;;;;;25.58;16.65;;;7.20;99.90;;;;;;5073996;28;20081;-80
2022/11/24 00:53:36;;;;;;;24.30;16.08;;;7.10;99.90;;;;;;5074328;28;20020;-80
2022/11/24 00:56:04;;;;;;;28.40;16.98;;;7.10;99.90;;;;;;5074329;28;20032;-80
2022/11/24 00:58:30;;;;;;;29.13;16.50;;;7.00;99.90;;;;;;5074153;28;20012;-81
2022/11/24 01:01:02;;;;;;;29.60;17.65;;;6.90;99.90;;;;;;5074600;28;20024;-80
2022/11/24 01:03:28;;;;;;;29.90;17.73;;;6.80;99.90;;;;;;5074160;28;20421;-80
2022/11/24 01:05:53;;;;;;;26.23;16.48;;;6.70;99.90;;;;;;5073879;28;20067;-80
2022/11/24 01:08:19;;;;;;;27.92;17.75;;;6.90;99.90;;;;;;5074128;28;20495;-80
2022/11/24 01:10:45;;;;;;;27.08;16.58;;;6.60;99.90;;;;;;5074353;28;20039;-80
2022/11/24 01:13:12;;;;;;;26.77;16.77;;;6.50;99.90;;;;;;5073839;28;20388;-80
2022/11/24 01:15:38;;;;;;;25.30;16.73;;;6.50;99.90;;;;;;5073801;28;20067;-80
2022/11/24 01:18:04;;;;;;;22.98;17.17;;;6.40;99.90;;;;;;5064313;28;20078;-80
2022/11/24 01:20:31;;;;;;;27.90;16.55;;;6.30;99.90;;;;;;5053512;28;20540;-80
2022/11/24 01:22:56;;;;;;;33.13;16.60;;;6.30;99.90;;;;;;5053728;28;20033;-80
2022/11/24 01:25:23;;;;;;;27.00;17.70;;;6.20;99.90;;;;;;5053779;28;20120;-80
2022/11/24 01:27:48;;;;;;;30.67;17.67;;;6.20;99.90;;;;;;5053978;28;20083;-80
2022/11/24 01:30:14;;;;;;;29.13;18.05;;;6.20;99.90;;;;;;5053780;28;20021;-80
2022/11/24 01:32:39;;;;;;;28.05;17.83;;;6.20;99.90;;;;;;5057794;28;20052;-80
2022/11/24 01:35:06;;;;;;;31.38;17.85;;;6.20;99.90;;;;;;5073442;28;20021;-80
2022/11/24 01:37:32;;;;;;;36.25;20.67;;;6.10;99.90;;;;;;5073155;28;20039;-80
2022/11/24 01:39:57;;;;;;;33.25;24.00;;;6.10;99.90;;;;;;5073414;28;20017;-80
2022/11/24 01:42:23;;;;;;;40.78;25.75;;;6.20;99.90;;;;;;5073228;28;20059;-80
2022/11/24 01:45:27;;;;;;;39.78;25.95;;;6.30;99.90;;;;;;5073354;28;20052;-80
2022/11/24 01:47:52;;;;;;;41.42;26.77;;;6.20;99.90;;;;;;5073284;28;20029;-80
2022/11/24 01:50:18;;;;;;;33.75;25.70;;;6.20;99.90;;;;;;5072843;28;20028;-80
2022/11/24 01:52:49;;;;;;;31.45;20.52;;;6.10;99.90;;;;;;5073602;28;20025;-80
2022/11/24 01:55:19;;;;;;;31.55;19.75;;;6.10;99.90;;;;;;5073085;28;20115;-80
2022/11/24 01:57:52;;;;;;;30.38;18.77;;;6.10;99.90;;;;;;5072914;28;20064;-80
2022/11/24 02:00:18;;;;;;;28.02;17.75;;;6.20;99.90;;;;;;5072952;28;20066;-80
2022/11/24 02:02:44;;;;;;;34.97;19.60;;;6.30;99.90;;;;;;5072974;28;20028;-80
2022/11/24 02:05:24;;;;;;;30.17;20.00;;;6.60;99.90;;;;;;5072686;28;20050;-80
2022/11/24 02:07:52;;;;;;;29.58;16.83;;;6.40;99.90;;;;;;5072922;28;20089;-80
2022/11/24 02:10:18;;;;;;;31.40;18.33;;;6.40;99.90;;;;;;5073141;28;20017;-80
2022/11/24 02:12:46;;;;;;;30.02;18.58;;;6.40;99.90;;;;;;5072723;28;20032;-80
2022/11/24 02:15:14;;;;;;;26.75;15.52;;;6.50;99.90;;;;;;5072654;28;20092;-81
2022/11/24 02:17:39;;;;;;;29.25;14.48;;;6.80;99.90;;;;;;5066277;28;20438;-80
2022/11/24 02:20:08;;;;;;;26.67;14.77;;;6.40;99.90;;;;;;5052752;28;20021;-80
2022/11/24 02:22:33;;;;;;;27.75;16.25;;;6.40;99.90;;;;;;5052531;28;20037;-80
2022/11/24 02:25:29;;;;;;;25.38;15.75;;;6.30;99.90;;;;;;5052696;28;20028;-80
2022/11/24 02:27:58;;;;;;;28.95;15.18;;;6.20;99.90;;;;;;5053398;28;20154;-80
2022/11/24 02:30:23;;;;;;;27.33;15.00;;;6.10;99.90;;;;;;5052483;28;20064;-80
2022/11/24 02:32:51;;;;;;;24.95;13.10;;;6.60;99.90;;;;;;5059385;28;20488;-80
2022/11/24 02:35:17;;;;;;;23.25;10.52;;;6.40;99.90;;;;;;5072355;28;20532;-80
2022/11/24 02:37:43;;;;;;;22.58;9.68;;;6.00;99.90;;;;;;5072408;28;20269;-80
2022/11/24 02:40:09;;;;;;;23.17;9.63;;;6.00;99.90;;;;;;5071472;28;20024;-81
2022/11/24 02:42:40;;;;;;;24.08;10.13;;;5.90;99.90;;;;;;5073007;28;20078;-80
2022/11/24 02:45:08;;;;;;;23.75;10.43;;;5.90;99.90;;;;;;5072283;28;20074;-80
2022/11/24 02:47:33;;;;;;;24.73;10.43;;;5.90;99.90;;;;;;5071920;28;20488;-80
2022/11/24 02:49:59;;;;;;;25.13;10.32;;;6.00;99.90;;;;;;5071867;28;20029;-80
2022/11/24 02:52:24;;;;;;;25.40;11.98;;;6.00;99.90;;;;;;5073067;28;20021;-80
2022/11/24 02:54:50;;;;;;;23.35;12.07;;;6.00;99.90;;;;;;5072108;28;20028;-80
2022/11/24 02:57:15;;;;;;;29.83;15.00;;;6.00;99.90;;;;;;5072085;28;20055;-80
2022/11/24 02:59:41;;;;;;;26.73;14.65;;;5.80;99.90;;;;;;5071772;28;20469;-80
2022/11/24 03:02:07;;;;;;;26.15;12.95;;;5.80;99.90;;;;;;5072078;28;20033;-80
2022/11/24 03:04:32;;;;;;;30.70;12.73;;;5.70;99.90;;;;;;5072106;28;20036;-80
2022/11/24 03:06:58;;;;;;;24.45;12.02;;;5.70;99.90;;;;;;5072140;28;20112;-80
2022/11/24 03:09:23;;;;;;;24.58;12.43;;;5.70;99.90;;;;;;5072024;28;20458;-80
2022/11/24 03:11:49;;;;;;;31.08;12.18;;;5.90;99.90;;;;;;5072050;28;20021;-80
2022/11/24 03:14:15;;;;;;;27.83;11.82;;;5.70;99.90;;;;;;5072392;28;20025;-80
2022/11/24 03:16:40;;;;;;;24.67;11.80;;;5.70;99.90;;;;;;5071678;28;20126;-80
2022/11/24 03:19:06;;;;;;;21.75;10.93;;;5.70;99.90;;;;;;5053516;28;20025;-79
2022/11/24 03:21:31;;;;;;;25.80;9.65;;;5.60;99.90;;;;;;5051903;28;20035;-80
2022/11/24 03:23:57;;;;;;;27.35;9.52;;;5.60;99.90;;;;;;5052271;28;20495;-80
2022/11/24 03:26:24;;;;;;;26.25;9.10;;;5.60;99.90;;;;;;5052020;28;20036;-80
2022/11/24 03:28:54;;;;;;;22.55;7.88;;;5.50;99.90;;;;;;5051974;28;20017;-80
2022/11/24 03:31:19;;;;;;;21.23;8.13;;;5.50;99.90;;;;;;5052189;28;20112;-80
2022/11/24 03:33:45;;;;;;;20.10;8.07;;;5.60;99.90;;;;;;5066640;28;20128;-80
2022/11/24 03:36:11;;;;;;;22.38;8.10;;;5.60;99.90;;;;;;5071852;28;20090;-80
2022/11/24 03:38:36;;;;;;;21.98;9.00;;;5.70;99.90;;;;;;5073291;28;20056;-80
2022/11/24 03:41:02;;;;;;;23.88;9.57;;;5.60;99.90;;;;;;5072178;28;20071;-80
2022/11/24 03:43:28;;;;;;;22.95;9.25;;;5.60;99.90;;;;;;5071841;28;20053;-80
2022/11/24 03:45:53;;;;;;;20.98;7.90;;;5.60;99.90;;;;;;5071244;28;20035;-80
2022/11/24 03:48:20;;;;;;;27.20;8.10;;;5.70;99.90;;;;;;5071737;28;20028;-80
2022/11/24 03:50:57;;;;;;;21.00;8.15;;;5.70;99.90;;;;;;5072049;28;20025;-80
2022/11/24 03:53:24;;;;;;;21.35;7.93;;;5.70;99.90;;;;;;5071864;28;20255;-80
2022/11/24 03:55:50;;;;;;;25.70;7.93;;;5.60;99.90;;;;;;5071501;28;20020;-80
2022/11/24 03:58:15;;;;;;;27.52;10.05;;;5.70;99.90;;;;;;5071558;28;20040;-80
2022/11/24 04:00:41;;;;;;;18.55;9.65;;;6.20;99.90;;;;;;5072409;28;20021;-80
2022/11/24 04:03:07;;;;;;;28.40;10.63;;;5.60;99.90;;;;;;5075242;28;20553;-80
2022/11/24 04:05:35;;;;;;;28.65;11.57;;;5.60;99.90;;;;;;5075320;28;20123;-80
2022/11/24 04:08:02;;;;;;;28.35;12.18;;;5.50;99.90;;;;;;5075168;28;20107;-80
2022/11/24 04:10:29;;;;;;;27.60;10.98;;;5.40;99.90;;;;;;5074996;28;20020;-80
2022/11/24 04:12:54;;;;;;;21.73;9.85;;;5.40;99.90;;;;;;5075518;28;20400;-80
2022/11/24 04:15:21;;;;;;;22.17;10.23;;;5.40;99.90;;;;;;5074717;28;20025;-80
2022/11/24 04:17:49;;;;;;;27.17;9.05;;;5.30;99.90;;;;;;5067417;28;20029;-79
2022/11/24 04:20:15;;;;;;;25.83;9.75;;;5.20;99.90;;;;;;5055069;28;20469;-80
2022/11/24 04:22:41;;;;;;;16.13;7.88;;;5.20;99.90;;;;;;5055112;28;20087;-80
2022/11/24 04:25:08;;;;;;;23.70;8.43;;;5.10;99.90;;;;;;5054670;28;20021;-80
2022/11/24 04:27:35;;;;;;;28.40;8.82;;;5.10;99.90;;;;;;5055223;28;20431;-80
2022/11/24 04:30:01;;;;;;;21.77;8.35;;;5.10;99.90;;;;;;5054537;28;20029;-80
2022/11/24 04:32:27;;;;;;;29.75;7.53;;;5.10;99.90;;;;;;5058856;28;20045;-80
2022/11/24 04:34:53;;;;;;;19.80;6.57;;;5.20;99.90;;;;;;5074694;28;20033;-80
2022/11/24 04:37:18;;;;;;;24.23;7.97;;;5.50;99.90;;;;;;5074885;28;20036;-80
2022/11/24 04:39:45;;;;;;;17.85;7.15;;;5.30;99.90;;;;;;5074531;28;20499;-80
2022/11/24 04:42:11;;;;;;;19.95;6.72;;;5.20;99.90;;;;;;5074551;28;20043;-80
2022/11/24 04:44:37;;;;;;;15.88;5.57;;;5.20;99.90;;;;;;5074280;28;20031;-79
2022/11/24 04:47:03;;;;;;;19.42;6.35;;;5.70;99.90;;;;;;5074758;28;20032;-79
2022/11/24 04:49:29;;;;;;;22.90;6.22;;;5.20;99.90;;;;;;5074432;28;20481;-80
2022/11/24 04:51:54;;;;;;;19.17;6.43;;;5.20;99.90;;;;;;5074578;28;20111;-80
2022/11/24 04:54:20;;;;;;;19.88;6.63;;;5.10;99.90;;;;;;5074318;28;20108;-80
2022/11/24 04:56:50;;;;;;;20.73;7.55;;;5.00;99.90;;;;;;5074224;28;20040;-80
2022/11/24 04:59:16;;;;;;;15.73;6.95;;;5.30;99.90;;;;;;5073895;28;20430;-80
2022/11/24 05:01:43;;;;;;;17.88;7.72;;;5.10;99.90;;;;;;5074437;28;20075;-80
2022/11/24 05:04:10;;;;;;;14.02;6.53;;;5.10;99.90;;;;;;5074264;28;20025;-80
2022/11/24 05:06:37;;;;;;;19.33;6.38;;;5.10;99.90;;;;;;5073937;28;20024;-79
2022/11/24 05:09:03;;;;;;;19.15;5.38;;;5.10;99.90;;;;;;5074042;28;20032;-80
2022/11/24 05:11:29;;;;;;;15.93;6.75;;;5.10;99.90;;;;;;5074248;28;20020;-80
2022/11/24 05:13:54;;;;;;;16.02;5.63;;;5.10;99.90;;;;;;5072695;28;20031;-80
2022/11/24 05:16:20;;;;;;;17.60;5.25;;;5.00;99.90;;;;;;5074262;28;20497;-80
2022/11/24 05:18:45;;;;;;;20.95;5.35;;;5.00;99.90;;;;;;5058202;28;20104;-80
2022/11/24 05:21:11;;;;;;;14.50;5.18;;;5.00;99.90;;;;;;5053794;28;20079;-80
2022/11/24 05:23:37;;;;;;;16.10;5.30;;;5.00;99.90;;;;;;5054184;28;20092;-80
2022/11/24 05:26:04;;;;;;;18.25;6.30;;;5.40;99.90;;;;;;5053783;28;20416;-80
2022/11/24 05:28:30;;;;;;;18.02;6.40;;;5.00;99.90;;;;;;5053445;28;20107;-80
2022/11/24 05:31:03;;;;;;;20.48;6.20;;;5.00;99.90;;;;;;5053658;28;20450;-79
2022/11/24 05:33:32;;;;;;;20.17;5.30;;;5.40;99.90;;;;;;5066573;28;20048;-80
2022/11/24 05:36:05;;;;;;;17.90;5.63;;;4.90;99.90;;;;;;5073278;28;20396;-80
2022/11/24 05:38:31;;;;;;;17.20;5.38;;;4.90;99.90;;;;;;5073619;28;20066;-80
2022/11/24 05:41:02;;;;;;;18.60;5.63;;;4.80;99.90;;;;;;5073834;28;20028;-80
2022/11/24 05:43:28;;;;;;;19.05;5.95;;;4.80;99.90;;;;;;5073481;28;20016;-80
2022/11/24 05:45:53;;;;;;;16.60;5.63;;;4.80;99.90;;;;;;5073340;28;20032;-80
2022/11/24 05:48:19;;;;;;;17.33;6.50;;;4.70;99.90;;;;;;5073207;28;20025;-80
2022/11/24 05:50:45;;;;;;;17.40;5.75;;;4.70;99.90;;;;;;5073422;28;20040;-80
2022/11/24 05:53:12;;;;;;;14.23;5.28;;;4.70;99.90;;;;;;5073428;28;20177;-80
2022/11/24 05:55:38;;;;;;;18.60;5.53;;;4.70;99.90;;;;;;5072651;28;20503;-80
2022/11/24 05:58:06;;;;;;;17.25;6.15;;;4.60;99.90;;;;;;5073348;28;20119;-80
2022/11/24 06:00:34;;;;;;;26.73;6.03;;;4.60;99.90;;;;;;5073331;28;20379;-80
2022/11/24 06:03:00;;;;;;;22.08;6.15;;;4.60;99.90;;;;;;5072789;28;20540;-80
2022/11/24 06:05:27;;;;;;;19.13;5.45;;;4.60;99.90;;;;;;5073004;28;20361;-80
2022/11/24 06:07:53;;;;;;;18.17;5.72;;;4.70;99.90;;;;;;5072962;28;20036;-80
2022/11/24 06:10:21;;;;;;;20.10;5.85;;;4.60;99.90;;;;;;5073252;28;20032;-80
2022/11/24 06:12:47;;;;;;;19.33;6.65;;;4.60;99.90;;;;;;5072735;28;20044;-80
2022/11/24 06:15:13;;;;;;;17.40;6.90;;;4.60;99.90;;;;;;5072767;28;20024;-80
2022/11/24 06:17:39;;;;;;;21.55;7.75;;;4.60;99.90;;;;;;5066320;28;20037;-80
2022/11/24 06:20:05;;;;;;;21.27;8.27;;;4.50;99.90;;;;;;5052723;28;20485;-80
2022/11/24 06:22:31;;;;;;;23.45;8.23;;;4.50;99.90;;;;;;5052897;28;20025;-80
2022/11/24 06:24:57;;;;;;;23.55;7.75;;;4.50;99.90;;;;;;5052128;28;20051;-80
2022/11/24 06:27:22;;;;;;;19.08;7.25;;;4.50;99.90;;;;;;5052805;28;20075;-80
2022/11/24 06:29:48;;;;;;;20.05;5.82;;;4.50;99.90;;;;;;5052617;28;20032;-80
2022/11/24 06:32:14;;;;;;;17.15;5.85;;;4.50;99.90;;;;;;5052892;28;20068;-80
2022/11/24 06:34:40;;;;;;;19.83;5.82;;;4.50;99.90;;;;;;5072899;28;20028;-80
2022/11/24 06:37:05;;;;;;;16.08;5.55;;;4.60;99.90;;;;;;5072329;28;20047;-80
2022/11/24 06:39:31;;;;;;;14.73;6.25;;;4.60;99.90;;;;;;5071903;28;20026;-80
2022/11/24 06:41:57;;;;;;;21.05;6.95;;;4.70;99.90;;;;;;5072284;28;20033;-80
2022/11/24 06:44:22;;;;;;;16.13;7.07;;;4.90;99.90;;;;;;5072245;28;20545;-80
2022/11/24 06:46:48;;;;;;;13.80;5.75;;;4.90;99.90;;;;;;5072134;28;20119;-80
2022/11/24 06:49:14;;;;;;;13.73;5.43;;;5.10;99.90;;;;;;5072250;28;20025;-80
2022/11/24 06:51:40;;;;;;;23.02;6.25;;;5.20;99.90;;;;;;5072588;28;20503;-80
2022/11/24 06:54:07;;;;;;;14.93;6.43;;;5.20;99.90;;;;;;5071741;28;20354;-80
2022/11/24 06:56:32;;;;;;;16.92;5.50;;;5.30;99.90;;;;;;5072353;28;20111;-80
2022/11/24 06:58:58;;;;;;;20.15;5.90;;;5.20;99.90;;;;;;5072578;28;20023;-80
2022/11/24 07:01:26;;;;;;;21.50;5.63;;;5.30;99.90;;;;;;5072039;28;20090;-80
2022/11/24 07:03:52;;;;;;;16.55;5.95;;;5.40;99.90;;;;;;5072393;28;20021;-80
2022/11/24 07:06:19;;;;;;;18.92;5.63;;;5.50;99.90;;;;;;5072216;28;20121;-80
2022/11/24 07:08:45;;;;;;;14.45;6.18;;;5.60;99.90;;;;;;5071686;28;20082;-81
2022/11/24 07:11:17;;;;;;;16.23;9.93;;;5.70;99.90;;;;;;5072078;28;20103;-80
2022/11/24 07:13:44;;;;;;;19.48;7.50;;;5.70;99.90;;;;;;5071902;28;20037;-80
2022/11/24 07:16:19;;;;;;;19.73;10.60;;;5.70;99.90;;;;;;5071951;28;20477;-80
2022/11/24 07:18:46;;;;;;;18.50;8.07;;;5.80;99.90;;;;;;5056546;28;20037;-80
2022/11/24 07:21:12;;;;;;;16.55;7.75;;;5.90;99.90;;;;;;5051854;28;20056;-80
2022/11/24 07:23:38;;;;;;;19.00;8.65;;;6.10;99.90;;;;;;5051722;28;20116;-80
2022/11/24 07:26:05;;;;;;;18.08;8.35;;;6.00;99.90;;;;;;5051938;28;20060;-80
2022/11/24 07:28:30;;;;;;;19.13;10.75;;;6.50;99.90;;;;;;5051854;28;20358;-80
2022/11/24 07:30:57;;;;;;;21.70;11.20;;;6.50;99.90;;;;;;5052055;28;20025;-80
2022/11/24 07:33:26;;;;;;;20.35;9.65;;;6.50;99.90;;;;;;5063484;28;20055;-80
2022/11/24 07:35:52;;;;;;;22.38;10.63;;;7.00;99.90;;;;;;5072134;28;20032;-80
2022/11/24 07:38:18;;;;;;;17.80;10.40;;;7.90;99.90;;;;;;5075626;28;20490;-80
2022/11/24 07:40:44;;;;;;;21.23;12.77;;;9.10;99.90;;;;;;5075646;28;20025;-80
2022/11/24 07:43:10;;;;;;;22.92;10.57;;;10.40;99.90;;;;;;5075631;28;20484;-80
2022/11/24 07:45:36;;;;;;;21.90;13.32;;;9.60;99.90;;;;;;5074332;28;20020;-80
2022/11/24 07:48:01;;;;;;;22.48;14.48;;;9.60;99.90;;;;;;5061733;28;20032;-83
2022/11/24 07:50:27;;;;;;;18.80;12.70;;;10.00;99.90;;;;;;5054970;28;20032;-82
2022/11/24 07:52:52;;;;;;;24.08;12.23;;;10.40;99.90;;;;;;5055087;28;20032;-82
2022/11/24 07:55:18;;;;;;;17.58;10.27;;;10.60;99.90;;;;;;5055253;28;20053;-83
2022/11/24 07:57:44;;;;;;;22.50;10.70;;;11.50;99.90;;;;;;5056148;28;20029;-82
2022/11/24 08:00:10;;;;;;;21.63;9.85;;;11.70;99.90;;;;;;5055630;28;20033;-83
2022/11/24 08:02:36;;;;;;;18.92;8.70;;;12.70;99.90;;;;;;5055733;28;20507;-83
2022/11/24 08:05:02;;;;;;;18.13;7.82;;;14.30;99.90;;;;;;5055763;28;20029;-83
2022/11/24 08:07:27;;;;;;;12.18;6.20;;;15.10;99.90;;;;;;5055817;28;20075;-83
2022/11/24 08:09:53;;;;;;;14.75;6.55;;;13.60;99.90;;;;;;5055718;28;20087;-83
2022/11/24 08:12:20;;;;;;;12.40;6.78;;;13.70;99.90;;;;;;5055457;28;20029;-83
2022/11/24 08:14:48;;;;;;;11.68;6.80;;;14.40;99.90;;;;;;5055497;28;20145;-83
2022/11/24 08:17:13;;;;;;;11.70;6.30;;;13.90;99.90;;;;;;5055632;28;20043;-84
2022/11/24 08:19:39;;;;;;;15.70;6.75;;;15.10;99.90;;;;;;5055459;28;20107;-83
2022/11/24 08:22:04;;;;;;;13.77;7.28;;;11.00;99.90;;;;;;5055148;28;20436;-83
2022/11/24 08:24:30;;;;;;;14.48;7.22;;;10.10;99.90;;;;;;5055757;28;20497;-83
2022/11/24 08:26:56;;;;;;;14.43;7.40;;;10.40;99.90;;;;;;5055304;28;20025;-83
2022/11/24 08:29:21;;;;;;;11.75;6.28;;;10.70;99.90;;;;;;5055321;28;20112;-83
2022/11/24 08:31:47;;;;;;;15.05;6.82;;;10.80;99.90;;;;;;5055218;28;20032;-83
2022/11/24 08:34:12;;;;;;;13.60;7.63;;;10.30;99.90;;;;;;5072613;28;20048;-83
2022/11/24 08:36:38;;;;;;;13.85;6.95;;;10.60;99.90;;;;;;5074702;28;20050;-83
2022/11/24 08:39:04;;;;;;;15.70;7.45;;;10.70;99.90;;;;;;5075444;28;20028;-83
2022/11/24 08:41:30;;;;;;;13.40;6.75;;;10.80;99.90;;;;;;5075213;28;20021;-83
2022/11/24 08:43:56;;;;;;;13.40;7.18;;;9.90;99.90;;;;;;5074986;28;20039;-83
2022/11/24 08:46:22;;;;;;;14.27;7.05;;;10.80;99.90;;;;;;5075421;28;20025;-83
2022/11/24 08:48:50;;;;;;;13.07;7.57;;;14.10;99.90;;;;;;5073814;28;20029;-84
2022/11/24 08:51:19;;;;;;;13.60;7.53;;;15.50;99.90;;;;;;5074488;28;20025;-84
2022/11/24 08:53:45;;;;;;;13.60;7.38;;;16.50;99.90;;;;;;5075030;28;20046;-84
2022/11/24 08:56:12;;;;;;;12.88;7.45;;;15.90;99.90;;;;;;5075455;28;20041;-84
2022/11/24 08:58:38;;;;;;;15.55;7.63;;;15.50;99.90;;;;;;5074967;28;20020;-83
2022/11/24 09:01:11;;;;;;;13.20;7.03;;;16.70;99.90;;;;;;5074605;28;20034;-84
2022/11/24 09:03:38;;;;;;;14.80;7.88;;;17.40;99.90;;;;;;5074554;28;20021;-82
2022/11/24 09:06:04;;;;;;;15.23;8.43;;;18.00;99.90;;;;;;5074852;28;20031;-84
2022/11/24 09:08:31;;;;;;;13.65;7.15;;;19.00;99.90;;;;;;5075062;28;20017;-84
2022/11/24 09:11:05;;;;;;;14.00;8.15;;;16.30;99.90;;;;;;5074376;28;20035;-83
2022/11/24 09:13:31;;;;;;;15.52;8.00;;;15.20;99.90;;;;;;5074575;28;20097;-84
2022/11/24 09:16:04;;;;;;;13.57;8.38;;;16.00;99.90;;;;;;5067661;28;20484;-84
2022/11/24 09:18:30;;;;;;;15.00;8.20;;;16.10;99.90;;;;;;5053431;28;20486;-83
2022/11/24 09:21:06;;;;;;;14.32;8.23;;;16.40;99.90;;;;;;5053989;28;20058;-83
2022/11/24 09:23:32;;;;;;;15.77;8.80;;;18.50;99.90;;;;;;5034538;28;20048;-84
2022/11/24 09:26:13;;;;;;;12.48;8.40;;;18.10;99.90;;;;;;5048295;28;20041;-84
2022/11/24 09:28:40;;;;;;;11.60;7.53;;;19.80;99.90;;;;;;5054236;28;20031;-84
2022/11/24 09:31:12;;;;;;;12.75;7.97;;;20.00;99.90;;;;;;5054374;28;20082;-85
2022/11/24 09:33:38;;;;;;;13.15;7.88;;;20.80;99.90;;;;;;5057339;28;20041;-84
2022/11/24 09:36:05;;;;;;;13.63;7.28;;;21.20;99.90;;;;;;5054658;28;20032;-84
2022/11/24 09:38:31;;;;;;;9.68;6.72;;;20.50;99.90;;;;;;5053575;28;20040;-85
2022/11/24 09:41:25;;;;;;;15.30;7.97;;;21.90;99.90;;;;;;5053061;28;20397;-85
2022/11/24 09:44:17;;;;;;;13.75;7.88;;;23.50;99.90;;;;;;5053396;28;20124;-84
2022/11/24 09:46:58;;;;;;;13.07;6.80;;;24.80;99.90;;;;;;5053605;28;20025;-82
2022/11/24 09:49:34;;;;;;;13.25;7.53;;;24.80;99.90;;;;;;5053106;28;20199;-82
2022/11/24 09:52:04;;;;;;;13.60;7.13;;;25.70;99.90;;;;;;5053414;28;20033;-83
2022/11/24 09:54:33;;;;;;;11.20;6.85;;;25.60;99.90;;;;;;5053506;28;20044;-84
2022/11/24 09:57:00;;;;;;;11.73;7.03;;;24.90;99.90;;;;;;5053406;28;20036;-84
2022/11/24 09:59:27;;;;;;;13.98;7.30;;;24.30;99.90;;;;;;5053217;28;20025;-84
2022/11/24 10:01:53;;;;;;;13.05;7.57;;;24.60;99.90;;;;;;5053342;28;20029;-84
2022/11/24 10:04:27;;;;;;;12.55;7.28;;;24.50;99.90;;;;;;5053637;28;20377;-84
2022/11/24 10:07:07;;;;;;;11.88;7.38;;;24.70;99.90;;;;;;5053800;28;20057;-84
2022/11/24 10:09:58;;;;;;;12.75;7.65;;;25.10;99.90;;;;;;5052125;28;20017;-84
2022/11/24 10:12:45;;;;;;;12.85;7.53;;;24.70;99.90;;;;;;5052815;28;20017;-84
2022/11/24 10:15:32;;;;;;;14.43;7.80;;;23.40;99.90;;;;;;5053278;28;20433;-85
2022/11/24 10:18:33;;;;;;;13.25;7.53;;;22.90;99.90;;;;;;5052647;28;20103;-84
2022/11/24 10:21:20;;;;;;;15.25;7.70;;;23.60;99.90;;;;;;5039838;28;20141;-83
2022/11/24 10:24:23;;;;;;;12.43;7.40;;;23.70;99.90;;;;;;5043339;28;20035;-85
2022/11/24 10:27:09;;;;;;;11.90;7.07;;;23.90;99.90;;;;;;5052289;28;20141;-86
2022/11/24 10:29:39;;;;;;;13.43;8.30;;;24.10;99.90;;;;;;5052135;28;20021;-83
2022/11/24 10:32:18;;;;;;;13.70;7.70;;;24.60;99.90;;;;;;5052838;28;20370;-82
2022/11/24 10:34:48;;;;;;;12.40;7.90;;;25.00;99.90;;;;;;5072912;28;20063;-82
2022/11/24 10:37:31;;;;;;;13.02;7.45;;;25.70;99.90;;;;;;5053164;28;20059;-84
2022/11/24 10:40:07;;;;;;;16.15;8.13;;;26.20;99.90;;;;;;5051623;28;20397;-83
2022/11/24 10:42:37;;;;;;;12.30;8.02;;;26.60;99.90;;;;;;5051725;28;20033;-83
2022/11/24 10:45:09;;;;;;;12.48;7.70;;;27.00;99.90;;;;;;5053072;28;20025;-82
2022/11/24 10:47:34;;;;;;;15.65;8.05;;;26.50;99.90;;;;;;5052561;28;20415;-84
2022/11/24 10:50:08;;;;;;;13.10;7.97;;;26.30;99.90;;;;;;5052711;28;20028;-83
2022/11/24 10:52:40;;;;;;;13.00;8.20;;;26.20;99.90;;;;;;5051788;28;20037;-84
2022/11/24 10:55:06;;;;;;;15.38;8.52;;;26.40;99.90;;;;;;5052188;28;20484;-84
2022/11/24 10:57:42;;;;;;;14.05;8.45;;;26.10;99.90;;;;;;5051317;28;20374;-83
2022/11/24 11:00:17;;;;;;;14.95;8.77;;;26.40;99.90;;;;;;5052197;28;20056;-84
2022/11/24 11:02:43;;;;;;;12.93;8.80;;;26.50;99.90;;;;;;5051550;28;20055;-85
2022/11/24 11:05:31;;;;;;;13.70;8.85;;;26.30;99.90;;;;;;5051833;28;20029;-86
2022/11/24 11:08:18;;;;;;;13.10;9.35;;;27.10;99.90;;;;;;5049593;28;20032;-85
2022/11/24 11:10:46;;;;;;;18.17;9.63;;;27.10;99.90;;;;;;5050970;28;20120;-83
2022/11/24 11:13:30;;;;;;;12.70;8.73;;;27.50;99.90;;;;;;5052465;28;20052;-82
2022/11/24 11:15:57;;;;;;;11.18;8.95;;;27.50;99.90;;;;;;5050535;28;20033;-85
2022/11/24 11:18:30;;;;;;;13.57;9.75;;;28.10;99.90;;;;;;5052897;28;20098;-87
2022/11/24 11:21:00;;;;;;;12.55;8.57;;;29.10;99.90;;;;;;5051522;28;20029;-84
2022/11/24 11:23:36;;;;;;;12.77;9.43;;;29.80;99.90;;;;;;5051743;28;20453;-84
2022/11/24 11:26:20;;;;;;;14.73;9.70;;;30.50;99.90;;;;;;5049029;28;20028;-84
2022/11/24 11:29:18;;;;;;;15.15;9.30;;;31.00;99.90;;;;;;5051767;28;20086;-84
2022/11/24 11:32:00;;;;;;;13.32;9.13;;;30.70;99.90;;;;;;5043263;28;20045;-83
2022/11/24 11:34:29;;;;;;;13.10;9.10;;;30.30;99.90;;;;;;5031924;28;20045;-85
2022/11/24 11:36:55;;;;;;;13.55;8.60;;;28.40;99.90;;;;;;5044525;28;20386;-84
2022/11/24 11:39:30;;;;;;;12.93;8.60;;;27.00;99.90;;;;;;5047815;28;20100;-84
2022/11/24 11:42:15;;;;;;;13.48;7.82;;;26.80;99.90;;;;;;5050532;28;20037;-82
2022/11/24 11:44:53;;;;;;;10.55;7.80;;;26.60;99.90;;;;;;5050872;28;20398;-83
2022/11/24 11:47:27;;;;;;;12.50;7.32;;;26.80;99.90;;;;;;5051803;28;20032;-83
2022/11/24 11:49:53;;;;;;;11.90;7.20;;;26.90;99.90;;;;;;5052054;28;20096;-84
2022/11/24 11:52:46;;;;;;;14.25;7.28;;;26.20;99.90;;;;;;5051797;28;20041;-84
2022/11/24 11:55:30;;;;;;;8.20;6.28;;;25.60;99.90;;;;;;5051772;28;20508;-83
2022/11/24 11:57:59;;;;;;;10.88;7.07;;;25.40;99.90;;;;;;5051513;28;20684;-84
2022/11/24 12:00:25;;;;;;;11.15;7.50;;;26.00;99.90;;;;;;5051458;28;20059;-83
2022/11/24 12:03:12;;;;;;;11.50;7.10;;;26.00;99.90;;;;;;5052287;28;20029;-84
2022/11/24 12:06:23;;;;;;;11.60;7.72;;;26.00;99.90;;;;;;5051995;28;20025;-84
2022/11/24 12:09:00;;;;;;;11.25;6.80;;;25.80;99.90;;;;;;5046814;28;20119;-83
2022/11/24 12:12:13;;;;;;;11.40;6.45;;;27.10;99.90;;;;;;5051513;28;20029;-84
2022/11/24 12:15:02;;;;;;;11.18;6.93;;;26.40;99.90;;;;;;5029428;28;20033;-84
2022/11/24 12:17:44;;;;;;;13.00;6.70;;;26.50;99.90;;;;;;5029401;28;20128;-84
2022/11/24 12:20:18;;;;;;;12.23;6.40;;;26.40;99.90;;;;;;5029500;28;20494;-84
2022/11/24 12:22:57;;;;;;;14.82;6.57;;;26.60;99.90;;;;;;5031182;28;20033;-83
2022/11/24 12:25:43;;;;;;;12.27;6.80;;;26.40;99.90;;;;;;5032932;28;20045;-84
2022/11/24 12:28:29;;;;;;;11.25;5.43;;;26.50;99.90;;;;;;5032698;28;20021;-84
2022/11/24 12:30:57;;;;;;;10.77;6.50;;;26.50;99.90;;;;;;5032994;28;20036;-84
2022/11/24 12:33:42;;;;;;;9.55;5.97;;;26.00;99.90;;;;;;5033050;28;20053;-84
2022/11/24 12:36:51;;;;;;;9.05;4.95;;;27.10;99.90;;;;;;5032659;28;20543;-84
2022/11/24 12:39:32;;;;;;;11.60;5.05;;;26.70;99.90;;;;;;5032651;28;20443;-84
2022/11/24 12:42:25;;;;;;;10.77;4.03;;;25.20;99.90;;;;;;5032431;28;20478;-84
2022/11/24 12:45:12;;;;;;;11.27;3.63;;;27.10;99.90;;;;;;5033398;28;20117;-84
2022/11/24 12:47:52;;;;;;;10.05;3.17;;;27.60;99.90;;;;;;5034971;28;20029;-84
2022/11/24 12:50:23;;;;;;;7.65;3.00;;;27.50;99.90;;;;;;5034640;28;20117;-84
2022/11/24 12:53:02;;;;;;;21.38;10.85;;;27.80;99.90;;;;;;5034704;28;20028;-84
2022/11/24 12:55:32;;;;;;;8.30;3.28;;;28.60;99.90;;;;;;5034701;28;20022;-84